Time;durP1;ratioP1;P1;durP2;ratioP2;P2;SDS_P1;SDS_P2;PMS_P1;PMS_P2;Temp;Humidity;BMP_temperature;BMP_pressure;BME280_temperature;BME280_humidity;BME280_pressure;Samples;Min_cycle;Max_cycle;Signal;HPM_P1;HPM_P2
2023/09/11 00:00:29;;;;;;;6.88;4.55;;;19.80;99.90;;;;;;5073765;28;20037;-86
2023/09/11 00:02:54;;;;;;;19.42;4.60;;;19.80;99.90;;;;;;5056056;28;20094;-86
2023/09/11 00:05:20;;;;;;;8.38;4.43;;;19.80;99.90;;;;;;5056927;28;20031;-86
2023/09/11 00:07:46;;;;;;;5.47;3.83;;;19.80;99.90;;;;;;5073703;28;20031;-85
2023/09/11 00:10:11;;;;;;;7.10;4.40;;;19.70;99.90;;;;;;5056758;28;20071;-84
2023/09/11 00:12:37;;;;;;;6.95;4.60;;;19.70;99.90;;;;;;5074167;28;20025;-85
2023/09/11 00:15:03;;;;;;;6.32;4.53;;;19.60;99.90;;;;;;5073801;28;20214;-84
2023/09/11 00:17:29;;;;;;;8.85;4.30;;;19.60;99.90;;;;;;5056387;28;20141;-83
2023/09/11 00:19:55;;;;;;;8.48;4.55;;;19.60;99.90;;;;;;5056077;28;20470;-84
2023/09/11 00:22:20;;;;;;;7.28;4.57;;;19.60;99.90;;;;;;5073909;28;20025;-83
2023/09/11 00:24:46;;;;;;;6.90;4.45;;;19.60;99.90;;;;;;5056105;28;20032;-85
2023/09/11 00:27:11;;;;;;;5.32;4.10;;;19.50;99.90;;;;;;5056280;28;20024;-84
2023/09/11 00:29:37;;;;;;;7.90;4.05;;;19.50;99.90;;;;;;5056689;28;20035;-84
2023/09/11 00:32:03;;;;;;;8.02;4.50;;;19.50;99.90;;;;;;5056232;28;20086;-84
2023/09/11 00:34:31;;;;;;;7.28;4.45;;;19.50;99.90;;;;;;5056718;28;20020;-84
2023/09/11 00:36:57;;;;;;;5.93;4.38;;;19.40;99.90;;;;;;5055436;28;20020;-84
2023/09/11 00:39:23;;;;;;;9.65;4.55;;;19.30;99.90;;;;;;5056603;28;20082;-83
2023/09/11 00:41:49;;;;;;;7.13;4.65;;;19.30;99.90;;;;;;5056182;28;20059;-85
2023/09/11 00:44:14;;;;;;;11.00;4.50;;;19.30;99.90;;;;;;5057206;28;20028;-84
2023/09/11 00:46:41;;;;;;;8.23;4.75;;;19.30;99.90;;;;;;5074441;28;20031;-84
2023/09/11 00:49:07;;;;;;;8.07;4.70;;;19.20;99.90;;;;;;5055765;28;20051;-85
2023/09/11 00:51:35;;;;;;;7.28;4.85;;;19.20;99.90;;;;;;5056304;28;20032;-82
2023/09/11 00:54:01;;;;;;;7.43;4.68;;;19.30;99.90;;;;;;5055698;28;20559;-83
2023/09/11 00:56:27;;;;;;;7.90;4.10;;;19.30;99.90;;;;;;5056048;28;20028;-84
2023/09/11 00:58:53;;;;;;;7.78;4.43;;;19.20;99.90;;;;;;5055385;28;20086;-85
2023/09/11 01:01:21;;;;;;;6.75;4.47;;;19.10;99.90;;;;;;5073513;28;20055;-85
2023/09/11 01:03:47;;;;;;;6.60;4.28;;;19.10;99.90;;;;;;5055929;28;20024;-84
2023/09/11 01:06:13;;;;;;;9.70;4.97;;;19.10;99.90;;;;;;5072935;28;20535;-85
2023/09/11 01:08:39;;;;;;;7.88;4.47;;;19.10;99.90;;;;;;5056268;28;20068;-84
2023/09/11 01:11:04;;;;;;;8.40;4.32;;;19.10;99.90;;;;;;5055425;28;20040;-86
2023/09/11 01:13:31;;;;;;;7.47;4.95;;;18.90;99.90;;;;;;5057852;28;20055;-86
2023/09/11 01:16:07;;;;;;;9.40;4.50;;;18.90;99.90;;;;;;5059546;28;20036;-86
2023/09/11 01:18:53;;;;;;;8.10;5.18;;;18.90;99.90;;;;;;5060342;28;20028;-86
2023/09/11 01:21:34;;;;;;;7.05;4.38;;;18.90;99.90;;;;;;5060258;28;20461;-86
2023/09/11 01:24:22;;;;;;;10.32;4.88;;;18.90;99.90;;;;;;5060065;28;20028;-86
2023/09/11 01:26:59;;;;;;;7.68;4.82;;;18.90;99.90;;;;;;5077529;28;20028;-85
2023/09/11 01:29:26;;;;;;;6.00;4.38;;;18.90;99.90;;;;;;5060807;28;20036;-86
2023/09/11 01:31:54;;;;;;;9.00;4.15;;;18.90;99.90;;;;;;5059592;28;20115;-86
2023/09/11 01:34:19;;;;;;;9.18;4.63;;;18.90;99.90;;;;;;5077722;28;20031;-86
2023/09/11 01:36:45;;;;;;;5.82;4.22;;;18.70;99.90;;;;;;5077634;28;20104;-86
2023/09/11 01:39:11;;;;;;;7.03;4.82;;;18.70;99.90;;;;;;5052054;28;20040;-86
2023/09/11 01:41:44;;;;;;;5.32;4.25;;;18.60;99.90;;;;;;5039151;28;20469;-86
2023/09/11 01:44:25;;;;;;;11.15;5.30;;;18.50;99.90;;;;;;5056259;28;20017;-84
2023/09/11 01:46:53;;;;;;;6.07;4.38;;;18.50;99.90;;;;;;5038524;28;20374;-86
2023/09/11 01:49:20;;;;;;;7.32;4.90;;;18.50;99.90;;;;;;5056490;28;20045;-85
2023/09/11 01:51:47;;;;;;;8.50;4.70;;;18.50;99.90;;;;;;5039291;28;20488;-86
2023/09/11 01:54:13;;;;;;;8.07;4.68;;;18.50;99.90;;;;;;5056320;28;20056;-86
2023/09/11 01:56:39;;;;;;;7.18;4.60;;;18.50;99.90;;;;;;5056809;28;20033;-86
2023/09/11 01:59:05;;;;;;;7.68;4.35;;;18.50;99.90;;;;;;5067586;28;20035;-86
2023/09/11 02:01:30;;;;;;;7.65;4.80;;;18.50;99.90;;;;;;5076046;28;20025;-86
2023/09/11 02:03:56;;;;;;;6.72;4.53;;;18.50;99.90;;;;;;5075656;28;20032;-86
2023/09/11 02:06:22;;;;;;;10.60;4.60;;;18.60;99.90;;;;;;5076653;28;20043;-85
2023/09/11 02:08:47;;;;;;;8.70;4.75;;;18.60;99.90;;;;;;5075554;28;20037;-85
2023/09/11 02:11:13;;;;;;;9.70;4.85;;;18.50;99.90;;;;;;5076376;28;20043;-86
2023/09/11 02:13:39;;;;;;;8.68;4.78;;;18.40;99.90;;;;;;5059437;28;20112;-86
2023/09/11 02:16:04;;;;;;;7.55;4.53;;;18.40;99.90;;;;;;5058317;28;20035;-87
2023/09/11 02:18:30;;;;;;;7.30;4.47;;;18.40;99.90;;;;;;5076703;28;20056;-86
2023/09/11 02:20:56;;;;;;;9.38;4.97;;;18.40;99.90;;;;;;5075934;28;20050;-86
2023/09/11 02:23:22;;;;;;;7.57;4.50;;;18.40;99.90;;;;;;5058766;28;20492;-86
2023/09/11 02:25:48;;;;;;;6.55;4.55;;;18.30;99.90;;;;;;5075960;28;20021;-86
2023/09/11 02:28:14;;;;;;;8.85;4.88;;;18.30;99.90;;;;;;5076349;28;20152;-86
2023/09/11 02:30:40;;;;;;;8.75;4.65;;;18.30;99.90;;;;;;5076531;28;20028;-85
2023/09/11 02:33:05;;;;;;;9.13;4.47;;;18.30;99.90;;;;;;5058362;28;20513;-85
2023/09/11 02:35:31;;;;;;;7.78;4.55;;;18.20;99.90;;;;;;5058866;28;20028;-87
2023/09/11 02:37:57;;;;;;;6.85;4.80;;;18.20;99.90;;;;;;5076013;28;20366;-86
2023/09/11 02:40:23;;;;;;;7.30;4.35;;;18.10;99.90;;;;;;5076447;28;20497;-86
2023/09/11 02:42:49;;;;;;;7.65;4.32;;;18.00;99.90;;;;;;5077130;28;20024;-86
2023/09/11 02:45:14;;;;;;;8.50;4.97;;;18.10;99.90;;;;;;5058171;28;20032;-87
2023/09/11 02:47:40;;;;;;;6.68;4.32;;;18.00;99.90;;;;;;5076565;28;20032;-86
2023/09/11 02:50:06;;;;;;;8.88;4.95;;;17.90;99.90;;;;;;5058418;28;20045;-88
2023/09/11 02:52:32;;;;;;;6.47;4.40;;;18.00;99.90;;;;;;5076276;28;20025;-87
2023/09/11 02:54:57;;;;;;;10.13;4.63;;;18.00;99.90;;;;;;5057996;28;20029;-87
2023/09/11 02:57:23;;;;;;;7.13;4.50;;;18.00;99.90;;;;;;5058311;28;20492;-87
2023/09/11 02:59:48;;;;;;;8.77;5.20;;;17.90;99.90;;;;;;5075692;28;20040;-87
2023/09/11 03:02:14;;;;;;;8.95;4.88;;;18.00;99.90;;;;;;5075543;28;20017;-87
2023/09/11 03:04:39;;;;;;;7.47;4.63;;;18.00;99.90;;;;;;5058524;28;20074;-87
2023/09/11 03:07:05;;;;;;;7.47;4.70;;;18.10;99.90;;;;;;5057703;28;20024;-87
2023/09/11 03:09:31;;;;;;;10.50;4.75;;;18.10;99.90;;;;;;5076165;28;20032;-86
2023/09/11 03:11:56;;;;;;;8.38;4.78;;;18.10;99.90;;;;;;5075391;28;20081;-87
2023/09/11 03:14:22;;;;;;;9.70;4.95;;;18.00;99.90;;;;;;5058149;28;20043;-87
2023/09/11 03:16:47;;;;;;;9.45;4.82;;;18.10;99.90;;;;;;5075603;28;20053;-86
2023/09/11 03:19:13;;;;;;;7.93;5.22;;;18.10;99.90;;;;;;5058040;28;20037;-85
2023/09/11 03:21:39;;;;;;;10.70;5.53;;;18.10;99.90;;;;;;5058271;28;20071;-85
2023/09/11 03:24:04;;;;;;;8.82;4.93;;;18.10;99.90;;;;;;5057521;28;20036;-86
2023/09/11 03:26:30;;;;;;;11.90;4.75;;;18.10;99.90;;;;;;5075360;28;20025;-85
2023/09/11 03:28:56;;;;;;;7.70;4.88;;;18.10;99.90;;;;;;5057895;28;20028;-86
2023/09/11 03:31:22;;;;;;;11.70;5.10;;;18.10;99.90;;;;;;5075027;28;20024;-86
2023/09/11 03:33:47;;;;;;;9.75;4.95;;;18.00;99.90;;;;;;5075011;28;20473;-85
2023/09/11 03:36:15;;;;;;;7.15;4.50;;;18.00;99.90;;;;;;5073701;28;20036;-85
2023/09/11 03:38:40;;;;;;;7.88;5.15;;;18.00;99.90;;;;;;5057022;28;20054;-84
2023/09/11 03:41:06;;;;;;;10.10;4.82;;;17.90;99.90;;;;;;5074329;28;20088;-86
2023/09/11 03:43:31;;;;;;;9.27;5.70;;;17.80;99.90;;;;;;5057210;28;20354;-86
2023/09/11 03:45:57;;;;;;;12.60;5.20;;;17.70;99.90;;;;;;5056740;28;20031;-87
2023/09/11 03:48:22;;;;;;;5.70;4.57;;;17.70;99.90;;;;;;5057119;28;20021;-87
2023/09/11 03:50:48;;;;;;;7.70;5.00;;;17.80;99.90;;;;;;5057344;28;20049;-87
2023/09/11 03:53:13;;;;;;;5.95;4.10;;;17.70;99.90;;;;;;5074364;28;20035;-87
2023/09/11 03:55:39;;;;;;;10.35;4.97;;;17.60;99.90;;;;;;5056926;28;20063;-86
2023/09/11 03:58:05;;;;;;;11.80;5.18;;;17.70;99.90;;;;;;5056493;28;20020;-86
2023/09/11 04:00:30;;;;;;;6.78;4.70;;;17.70;99.90;;;;;;5056799;28;20090;-85
2023/09/11 04:02:56;;;;;;;7.82;4.85;;;17.70;99.90;;;;;;5056563;28;20029;-87
2023/09/11 04:05:21;;;;;;;8.55;4.75;;;17.70;99.90;;;;;;5056350;28;20028;-85
2023/09/11 04:07:47;;;;;;;6.78;4.38;;;17.60;99.90;;;;;;5074286;28;20025;-85
2023/09/11 04:10:13;;;;;;;9.90;5.15;;;17.70;99.90;;;;;;5056271;28;20177;-85
2023/09/11 04:12:39;;;;;;;9.50;4.97;;;17.60;99.90;;;;;;5056951;28;20077;-87
2023/09/11 04:15:05;;;;;;;9.80;5.03;;;17.60;99.90;;;;;;5056233;28;20119;-86
2023/09/11 04:17:30;;;;;;;7.20;4.80;;;17.50;99.90;;;;;;5056540;28;20128;-86
2023/09/11 04:19:56;;;;;;;6.80;5.10;;;17.40;99.90;;;;;;5074086;28;20032;-87
2023/09/11 04:22:21;;;;;;;9.10;5.20;;;17.50;99.90;;;;;;5055508;28;20530;-85
2023/09/11 04:24:47;;;;;;;6.90;4.65;;;17.60;99.90;;;;;;5056430;28;20028;-85
2023/09/11 04:27:13;;;;;;;10.40;5.13;;;17.60;99.90;;;;;;5055562;28;20107;-85
2023/09/11 04:29:39;;;;;;;8.77;4.88;;;17.70;99.90;;;;;;5056262;28;20032;-85
2023/09/11 04:32:05;;;;;;;7.40;4.60;;;17.70;99.90;;;;;;5056045;28;20027;-85
2023/09/11 04:34:31;;;;;;;9.23;5.07;;;17.70;99.90;;;;;;5074173;28;20021;-85
2023/09/11 04:36:56;;;;;;;6.18;4.55;;;17.70;99.90;;;;;;5056299;28;20028;-85
2023/09/11 04:39:23;;;;;;;8.48;4.35;;;17.60;99.90;;;;;;5073655;28;20040;-85
2023/09/11 04:41:48;;;;;;;8.45;4.45;;;17.40;99.90;;;;;;5056257;28;20032;-84
2023/09/11 04:44:14;;;;;;;6.03;4.45;;;17.50;99.90;;;;;;5055803;28;20031;-85
2023/09/11 04:46:39;;;;;;;7.45;4.50;;;17.30;99.90;;;;;;5056081;28;20063;-85
2023/09/11 04:49:05;;;;;;;12.07;4.82;;;17.20;99.90;;;;;;5055595;28;20060;-85
2023/09/11 04:51:31;;;;;;;10.65;4.75;;;17.20;99.90;;;;;;5074194;28;20484;-84
2023/09/11 04:53:57;;;;;;;8.55;5.32;;;17.30;99.90;;;;;;5056440;28;20047;-84
2023/09/11 04:56:23;;;;;;;8.13;5.05;;;17.20;99.90;;;;;;5056254;28;20461;-85
2023/09/11 04:58:48;;;;;;;8.43;5.25;;;17.10;99.90;;;;;;5073865;28;20043;-84
2023/09/11 05:01:14;;;;;;;6.38;4.60;;;17.10;99.90;;;;;;5056388;28;20025;-84
2023/09/11 05:03:40;;;;;;;7.68;4.65;;;17.10;99.90;;;;;;5056116;28;20024;-84
2023/09/11 05:06:05;;;;;;;8.85;5.00;;;17.10;99.90;;;;;;5055643;28;20021;-83
2023/09/11 05:08:31;;;;;;;7.05;4.78;;;17.10;99.90;;;;;;5056515;28;20028;-85
2023/09/11 05:10:56;;;;;;;10.35;5.05;;;17.10;99.90;;;;;;5056855;28;20358;-84
2023/09/11 05:13:22;;;;;;;12.27;5.47;;;17.10;99.90;;;;;;5073174;28;20035;-84
2023/09/11 05:15:50;;;;;;;8.10;5.40;;;17.10;99.90;;;;;;5056745;28;20032;-84
2023/09/11 05:18:16;;;;;;;7.05;4.95;;;17.10;99.90;;;;;;5073543;28;20086;-84
2023/09/11 05:20:42;;;;;;;8.07;5.35;;;17.10;99.90;;;;;;5055739;28;20090;-84
2023/09/11 05:23:07;;;;;;;12.50;5.28;;;17.00;99.90;;;;;;5073206;28;20021;-85
2023/09/11 05:25:34;;;;;;;9.85;5.03;;;17.00;99.90;;;;;;5056013;28;20113;-85
2023/09/11 05:28:00;;;;;;;6.90;4.57;;;17.10;99.90;;;;;;5056093;28;20021;-85
2023/09/11 05:30:25;;;;;;;11.07;4.97;;;17.20;99.90;;;;;;5055789;28;20025;-84
2023/09/11 05:32:52;;;;;;;8.90;5.13;;;17.30;99.90;;;;;;5055832;28;20116;-85
2023/09/11 05:35:19;;;;;;;8.40;5.30;;;17.30;99.90;;;;;;5073094;28;20025;-85
2023/09/11 05:37:45;;;;;;;10.30;4.95;;;17.30;99.90;;;;;;5072975;28;20029;-85
2023/09/11 05:40:11;;;;;;;8.20;4.90;;;17.30;99.90;;;;;;5068494;28;20036;-86
2023/09/11 05:42:36;;;;;;;11.93;5.20;;;17.40;99.90;;;;;;5065172;28;20024;-85
2023/09/11 05:45:03;;;;;;;10.80;5.20;;;17.40;99.90;;;;;;5082471;28;20060;-86
2023/09/11 05:47:28;;;;;;;9.35;5.35;;;17.30;99.90;;;;;;5080055;28;20033;-85
2023/09/11 05:49:59;;;;;;;7.55;4.72;;;17.30;99.90;;;;;;5063150;28;20040;-86
2023/09/11 05:52:24;;;;;;;7.15;5.07;;;17.40;99.90;;;;;;5076031;28;20025;-85
2023/09/11 05:54:50;;;;;;;9.38;5.35;;;17.40;99.90;;;;;;5077265;28;20122;-85
2023/09/11 05:57:15;;;;;;;7.95;4.72;;;17.50;99.90;;;;;;5078326;28;20127;-81
2023/09/11 05:59:41;;;;;;;8.50;5.35;;;17.60;99.90;;;;;;5067258;28;20029;-85
2023/09/11 06:02:07;;;;;;;11.18;5.35;;;17.70;99.90;;;;;;5069911;28;20024;-86
2023/09/11 06:04:32;;;;;;;9.63;5.13;;;17.60;99.90;;;;;;5064882;28;20464;-84
2023/09/11 06:06:58;;;;;;;7.95;4.95;;;17.60;99.90;;;;;;5084617;28;20068;-85
2023/09/11 06:09:23;;;;;;;9.25;5.03;;;17.60;99.90;;;;;;5067372;28;20109;-85
2023/09/11 06:11:49;;;;;;;10.00;5.38;;;17.60;99.90;;;;;;5061667;28;20032;-86
2023/09/11 06:14:15;;;;;;;12.07;6.03;;;17.60;99.90;;;;;;5085899;28;20480;-85
2023/09/11 06:16:41;;;;;;;10.95;5.30;;;17.60;99.90;;;;;;5084197;28;20024;-85
2023/09/11 06:19:07;;;;;;;10.30;5.93;;;17.70;99.90;;;;;;5088226;28;20039;-84
2023/09/11 06:21:32;;;;;;;11.82;5.57;;;17.70;99.90;;;;;;5083864;28;20032;-85
2023/09/11 06:23:58;;;;;;;8.32;4.97;;;17.80;99.90;;;;;;5086426;28;20458;-85
2023/09/11 06:26:23;;;;;;;8.55;5.05;;;17.70;99.90;;;;;;5087460;28;20058;-85
2023/09/11 06:28:50;;;;;;;9.45;5.28;;;17.70;99.90;;;;;;5064704;28;20032;-84
2023/09/11 06:31:16;;;;;;;10.02;5.57;;;17.80;99.90;;;;;;5078004;28;20031;-85
2023/09/11 06:33:44;;;;;;;9.73;5.60;;;17.90;99.90;;;;;;5063697;28;20031;-86
2023/09/11 06:36:09;;;;;;;8.85;5.65;;;17.90;99.90;;;;;;5058732;28;20032;-87
2023/09/11 06:38:35;;;;;;;12.40;6.20;;;17.90;99.90;;;;;;5059586;28;20526;-87
2023/09/11 06:41:01;;;;;;;9.63;5.40;;;18.00;99.90;;;;;;5078101;28;20037;-86
2023/09/11 06:43:26;;;;;;;10.27;6.00;;;18.10;99.90;;;;;;5074958;28;20087;-86
2023/09/11 06:45:52;;;;;;;14.38;5.60;;;18.10;99.90;;;;;;5078440;28;20388;-86
2023/09/11 06:48:18;;;;;;;11.25;5.43;;;18.20;99.90;;;;;;5078642;28;20025;-85
2023/09/11 06:50:44;;;;;;;11.52;6.13;;;18.20;99.90;;;;;;5079217;28;20056;-86
2023/09/11 06:53:11;;;;;;;12.88;6.10;;;18.30;99.90;;;;;;5069206;28;20068;-84
2023/09/11 06:55:43;;;;;;;16.67;7.78;;;18.40;99.90;;;;;;5082739;28;20028;-84
2023/09/11 06:58:09;;;;;;;14.02;7.03;;;18.50;99.90;;;;;;5065432;28;20025;-83
2023/09/11 07:00:35;;;;;;;14.75;7.03;;;18.50;99.90;;;;;;5084317;28;20366;-83
2023/09/11 07:03:00;;;;;;;14.07;6.70;;;18.60;99.90;;;;;;5061754;28;20203;-83
2023/09/11 07:05:27;;;;;;;13.07;6.68;;;18.70;99.90;;;;;;5070544;28;20024;-83
2023/09/11 07:07:53;;;;;;;16.90;7.40;;;18.70;99.90;;;;;;5070477;28;20023;-84
2023/09/11 07:10:19;;;;;;;14.45;7.07;;;18.80;99.90;;;;;;5087115;28;20097;-85
2023/09/11 07:12:45;;;;;;;15.85;6.68;;;18.90;99.90;;;;;;5084303;28;20030;-85
2023/09/11 07:15:11;;;;;;;15.05;7.22;;;18.90;99.90;;;;;;5069202;28;20079;-84
2023/09/11 07:17:37;;;;;;;14.02;7.30;;;19.00;99.90;;;;;;5062915;28;20461;-84
2023/09/11 07:20:04;;;;;;;17.85;7.28;;;19.00;99.90;;;;;;5080051;28;20369;-85
2023/09/11 07:22:30;;;;;;;12.35;7.30;;;19.10;99.90;;;;;;5064312;28;20140;-82
2023/09/11 07:24:56;;;;;;;16.60;7.13;;;19.10;99.90;;;;;;5070183;28;20107;-83
2023/09/11 07:27:22;;;;;;;19.13;6.72;;;19.20;99.90;;;;;;5069147;28;20078;-83
2023/09/11 07:29:49;;;;;;;15.18;7.30;;;19.20;99.90;;;;;;5084117;28;20365;-86
2023/09/11 07:32:14;;;;;;;17.42;7.38;;;19.30;99.90;;;;;;5078325;28;20115;-86
2023/09/11 07:34:40;;;;;;;15.52;7.15;;;19.30;99.90;;;;;;5058342;28;20437;-84
2023/09/11 07:37:06;;;;;;;18.55;7.30;;;19.40;99.90;;;;;;5062286;28;20454;-88
2023/09/11 07:39:31;;;;;;;14.15;7.55;;;19.40;99.90;;;;;;5079131;28;20116;-88
2023/09/11 07:41:58;;;;;;;11.98;7.18;;;19.50;99.90;;;;;;5085191;28;20063;-86
2023/09/11 07:44:23;;;;;;;10.60;6.88;;;19.50;99.90;;;;;;5086816;28;20031;-90
2023/09/11 07:46:49;;;;;;;13.35;6.80;;;19.50;99.90;;;;;;5075757;28;20024;-87
2023/09/11 07:49:14;;;;;;;14.25;6.50;;;19.60;99.90;;;;;;5064937;28;20036;-86
2023/09/11 07:51:40;;;;;;;15.27;7.22;;;19.60;99.90;;;;;;5067898;28;20056;-83
2023/09/11 07:54:06;;;;;;;15.75;7.15;;;19.70;99.90;;;;;;5079847;28;20037;-88
2023/09/11 07:56:33;;;;;;;12.13;7.13;;;19.70;99.90;;;;;;5079471;28;20078;-87
2023/09/11 07:59:00;;;;;;;17.00;7.82;;;19.80;99.90;;;;;;5062359;28;20044;-84
2023/09/11 08:01:26;;;;;;;18.17;7.63;;;19.90;99.90;;;;;;5065293;28;20036;-81
2023/09/11 08:03:51;;;;;;;17.23;7.57;;;19.90;99.90;;;;;;5079606;28;20029;-87
2023/09/11 08:06:18;;;;;;;16.23;7.00;;;19.90;99.90;;;;;;5079922;28;20094;-91
2023/09/11 08:08:44;;;;;;;15.60;7.07;;;20.00;99.90;;;;;;5062063;28;20024;-89
2023/09/11 08:11:20;;;;;;;16.58;7.10;;;20.00;99.90;;;;;;5064664;28;20025;-84
2023/09/11 08:13:46;;;;;;;16.88;6.68;;;20.00;99.90;;;;;;5061314;28;20036;-83
2023/09/11 08:16:14;;;;;;;11.88;6.97;;;20.10;99.90;;;;;;5060498;28;20028;-85
2023/09/11 08:18:39;;;;;;;13.27;7.07;;;20.10;99.90;;;;;;5063048;28;20070;-83
2023/09/11 08:21:05;;;;;;;12.85;7.00;;;20.20;99.90;;;;;;5085351;28;20029;-87
2023/09/11 08:23:30;;;;;;;13.60;6.93;;;20.20;99.90;;;;;;5084574;28;20025;-85
2023/09/11 08:25:57;;;;;;;11.45;7.00;;;20.30;99.90;;;;;;5081277;28;20075;-84
2023/09/11 08:28:23;;;;;;;19.30;6.70;;;20.40;99.90;;;;;;5061773;28;20761;-83
2023/09/11 08:30:51;;;;;;;14.63;6.05;;;20.50;99.90;;;;;;5060700;28;20029;-83
2023/09/11 08:33:17;;;;;;;14.82;6.68;;;20.60;99.90;;;;;;5079066;28;20964;-84
2023/09/11 08:35:43;;;;;;;12.82;6.10;;;20.60;99.90;;;;;;5081126;28;20035;-83
2023/09/11 08:38:09;;;;;;;14.00;6.28;;;20.70;99.90;;;;;;5080592;28;20488;-84
2023/09/11 08:40:35;;;;;;;15.45;6.60;;;20.70;99.90;;;;;;5065620;28;20044;-83
2023/09/11 08:43:02;;;;;;;11.82;6.70;;;20.80;99.90;;;;;;5078561;28;20028;-81
2023/09/11 08:45:28;;;;;;;11.35;6.55;;;20.80;99.90;;;;;;5082440;28;20054;-80
2023/09/11 08:47:56;;;;;;;14.35;6.55;;;20.90;99.90;;;;;;5086515;28;20720;-81
2023/09/11 08:50:29;;;;;;;12.75;6.90;;;21.00;99.90;;;;;;5078991;28;20120;-88
2023/09/11 08:52:57;;;;;;;12.23;5.60;;;21.10;99.90;;;;;;5079212;28;20026;-82
2023/09/11 08:55:24;;;;;;;14.02;6.25;;;21.10;99.90;;;;;;5059343;28;20025;-83
2023/09/11 08:57:50;;;;;;;10.85;6.22;;;21.20;99.90;;;;;;5066485;28;20024;-82
2023/09/11 09:00:16;;;;;;;12.90;6.05;;;21.30;99.90;;;;;;5067926;28;20075;-86
2023/09/11 09:02:43;;;;;;;11.05;6.28;;;21.40;99.90;;;;;;5078530;28;20032;-82
2023/09/11 09:05:09;;;;;;;11.05;6.20;;;21.50;99.90;;;;;;5062532;28;20564;-82
2023/09/11 09:07:37;;;;;;;12.68;6.90;;;21.40;99.90;;;;;;5083615;28;20047;-82
2023/09/11 09:10:04;;;;;;;12.60;6.50;;;21.60;99.90;;;;;;5062858;28;20071;-82
2023/09/11 09:12:29;;;;;;;12.77;6.88;;;21.60;99.90;;;;;;5065784;28;20032;-81
2023/09/11 09:14:56;;;;;;;13.77;7.35;;;21.70;99.90;;;;;;5077943;28;20020;-83
2023/09/11 09:17:22;;;;;;;11.20;7.00;;;21.70;99.90;;;;;;5073502;28;20358;-82
2023/09/11 09:19:48;;;;;;;11.93;7.30;;;21.80;99.90;;;;;;5080892;28;20050;-81
2023/09/11 09:22:14;;;;;;;12.95;6.53;;;21.80;99.90;;;;;;5078441;28;20109;-81
2023/09/11 09:24:52;;;;;;;13.43;6.05;;;21.90;99.90;;;;;;5069368;28;20020;-82
2023/09/11 09:27:18;;;;;;;9.48;6.68;;;22.00;99.90;;;;;;5062162;28;20110;-81
2023/09/11 09:29:44;;;;;;;12.30;6.18;;;22.00;99.90;;;;;;5061884;28;20515;-82
2023/09/11 09:32:11;;;;;;;11.70;6.63;;;22.10;99.90;;;;;;5080619;28;20107;-81
2023/09/11 09:34:41;;;;;;;11.25;6.00;;;22.10;99.90;;;;;;5081106;28;20024;-82
2023/09/11 09:37:15;;;;;;;11.43;6.32;;;22.30;99.90;;;;;;5087522;28;20127;-81
2023/09/11 09:39:41;;;;;;;14.00;6.15;;;22.30;99.90;;;;;;5078555;28;20062;-80
2023/09/11 09:42:07;;;;;;;9.23;5.90;;;22.40;99.90;;;;;;5081162;28;20039;-84
2023/09/11 09:44:41;;;;;;;17.42;5.85;;;22.40;99.90;;;;;;5080036;28;20020;-80
2023/09/11 09:47:13;;;;;;;9.82;6.35;;;22.40;99.90;;;;;;5078751;28;20025;-84
2023/09/11 09:49:55;;;;;;;11.98;6.30;;;22.50;99.90;;;;;;5062824;28;20492;-78
2023/09/11 09:52:25;;;;;;;11.27;6.30;;;22.60;99.90;;;;;;5069171;28;20454;-80
2023/09/11 09:54:54;;;;;;;15.68;6.15;;;22.60;99.90;;;;;;5065884;28;20470;-80
2023/09/11 09:57:22;;;;;;;10.82;5.88;;;22.70;99.90;;;;;;5063270;28;20055;-79
2023/09/11 09:59:57;;;;;;;11.45;6.88;;;22.70;99.90;;;;;;5080068;28;20457;-79
2023/09/11 10:02:26;;;;;;;13.60;6.55;;;22.70;99.90;;;;;;5059396;28;20028;-80
2023/09/11 10:04:54;;;;;;;9.43;5.80;;;22.80;99.90;;;;;;5061324;28;20493;-83
2023/09/11 10:07:42;;;;;;;12.82;6.20;;;22.80;99.90;;;;;;5078271;28;20036;-80
2023/09/11 10:10:21;;;;;;;16.17;6.50;;;22.90;99.90;;;;;;5062977;28;20037;-86
2023/09/11 10:13:00;;;;;;;11.15;6.00;;;22.90;99.90;;;;;;5074616;28;20032;-81
2023/09/11 10:15:26;;;;;;;16.45;5.85;;;23.00;99.90;;;;;;5081452;28;20050;-82
2023/09/11 10:17:56;;;;;;;9.40;6.32;;;23.10;99.90;;;;;;5060430;28;20024;-80
2023/09/11 10:20:25;;;;;;;9.45;5.32;;;23.10;99.90;;;;;;5046377;28;20029;-81
2023/09/11 10:22:54;;;;;;;11.75;6.07;;;23.20;99.90;;;;;;5069242;28;20132;-80
2023/09/11 10:25:21;;;;;;;11.25;6.00;;;23.10;99.90;;;;;;5070708;28;20032;-81
2023/09/11 10:27:49;;;;;;;10.80;5.80;;;23.20;99.90;;;;;;5062903;28;20418;-81
2023/09/11 10:30:21;;;;;;;11.05;5.65;;;23.20;99.90;;;;;;5083121;28;20036;-78
2023/09/11 10:32:58;;;;;;;12.00;6.07;;;23.30;99.90;;;;;;5075942;28;20520;-82
2023/09/11 10:35:26;;;;;;;10.65;5.90;;;23.30;99.90;;;;;;5062141;28;20381;-81
2023/09/11 10:37:57;;;;;;;11.63;5.07;;;23.30;99.90;;;;;;5053221;28;20025;-82
2023/09/11 10:40:31;;;;;;;10.85;5.20;;;23.40;99.90;;;;;;5070912;28;20044;-86
2023/09/11 10:42:57;;;;;;;8.48;5.07;;;23.50;99.90;;;;;;5075699;28;20465;-80
2023/09/11 10:45:34;;;;;;;9.95;5.03;;;23.50;99.90;;;;;;5060340;28;20033;-80
2023/09/11 10:48:04;;;;;;;7.93;5.30;;;23.50;99.90;;;;;;5061347;28;20029;-80
2023/09/11 10:50:43;;;;;;;8.40;5.07;;;23.40;99.90;;;;;;5065210;28;20473;-83
2023/09/11 10:53:09;;;;;;;10.38;5.00;;;23.40;99.90;;;;;;5068674;28;20032;-85
2023/09/11 10:55:35;;;;;;;10.93;5.10;;;23.50;99.90;;;;;;5070357;28;20078;-82
2023/09/11 10:58:05;;;;;;;8.63;5.15;;;23.60;99.90;;;;;;5070281;28;20462;-83
2023/09/11 11:00:40;;;;;;;9.80;4.75;;;23.70;99.90;;;;;;5069168;28;20187;-81
2023/09/11 11:03:06;;;;;;;8.52;5.20;;;23.80;99.90;;;;;;5070459;28;20043;-86
2023/09/11 11:05:32;;;;;;;8.43;4.60;;;23.80;99.90;;;;;;5076381;28;20436;-81
2023/09/11 11:07:58;;;;;;;7.68;4.88;;;23.90;99.90;;;;;;5061842;28;20063;-81
2023/09/11 11:10:26;;;;;;;8.15;4.93;;;23.90;99.90;;;;;;5081271;28;20067;-81
2023/09/11 11:13:06;;;;;;;6.13;4.63;;;23.90;99.90;;;;;;5085042;28;20048;-81
2023/09/11 11:15:31;;;;;;;6.35;4.72;;;23.90;99.90;;;;;;5062060;28;20021;-82
2023/09/11 11:18:06;;;;;;;7.82;5.22;;;24.00;99.90;;;;;;5082342;28;20412;-84
2023/09/11 11:20:33;;;;;;;10.15;5.25;;;24.10;99.90;;;;;;5069174;28;20037;-82
2023/09/11 11:23:08;;;;;;;5.80;4.55;;;24.20;99.90;;;;;;5070362;28;20036;-81
2023/09/11 11:25:34;;;;;;;10.63;4.82;;;24.20;99.90;;;;;;5068358;28;20020;-83
2023/09/11 11:28:22;;;;;;;8.20;4.90;;;24.30;99.90;;;;;;5061081;28;20024;-83
2023/09/11 11:30:52;;;;;;;8.48;4.80;;;24.30;99.90;;;;;;5083378;28;20032;-84
2023/09/11 11:33:22;;;;;;;7.05;4.85;;;24.50;99.90;;;;;;5068378;28;20123;-83
2023/09/11 11:35:49;;;;;;;7.40;4.88;;;24.50;99.90;;;;;;5069781;28;20020;-81
2023/09/11 11:38:19;;;;;;;11.32;5.03;;;24.60;99.90;;;;;;5068095;28;20389;-83
2023/09/11 11:40:46;;;;;;;8.77;4.75;;;24.70;99.90;;;;;;5060799;28;20131;-81
2023/09/11 11:43:12;;;;;;;8.80;4.60;;;24.80;99.90;;;;;;5059432;28;20036;-81
2023/09/11 11:45:44;;;;;;;10.15;5.15;;;24.90;99.90;;;;;;5064451;28;20036;-81
2023/09/11 11:48:11;;;;;;;10.60;5.50;;;24.90;99.90;;;;;;5059956;28;20370;-84
2023/09/11 11:50:46;;;;;;;9.35;4.68;;;25.00;99.90;;;;;;5065506;28;20570;-79
2023/09/11 11:53:16;;;;;;;8.35;5.95;;;25.00;99.90;;;;;;5063863;28;20025;-81
2023/09/11 11:55:42;;;;;;;10.55;5.57;;;25.00;99.90;;;;;;5056443;28;20024;-85
2023/09/11 11:58:13;;;;;;;7.47;5.13;;;25.10;99.90;;;;;;5087886;28;20033;-84
2023/09/11 12:00:39;;;;;;;9.00;5.10;;;25.20;99.90;;;;;;5059562;28;20081;-82
2023/09/11 12:03:07;;;;;;;8.63;4.78;;;25.30;99.90;;;;;;5069129;28;20276;-85
2023/09/11 12:05:35;;;;;;;5.80;4.82;;;25.30;99.90;;;;;;5083443;28;20029;-83
2023/09/11 12:08:01;;;;;;;7.97;4.90;;;25.40;99.90;;;;;;5084376;28;20020;-82
2023/09/11 12:10:27;;;;;;;7.43;4.30;;;25.50;99.90;;;;;;5062613;28;20037;-82
2023/09/11 12:12:53;;;;;;;8.55;5.15;;;25.70;99.90;;;;;;5069048;28;20468;-84
2023/09/11 12:15:19;;;;;;;6.40;4.43;;;25.80;99.90;;;;;;5083850;28;20020;-81
2023/09/11 12:17:46;;;;;;;6.95;4.20;;;25.90;99.90;;;;;;5064965;28;20027;-82
2023/09/11 12:20:17;;;;;;;9.95;4.82;;;26.10;99.90;;;;;;5062991;28;20063;-82
2023/09/11 12:22:44;;;;;;;8.68;4.60;;;26.20;99.90;;;;;;5078993;28;20024;-85
2023/09/11 12:25:14;;;;;;;6.53;4.30;;;26.40;99.90;;;;;;5062853;28;20055;-82
2023/09/11 12:27:41;;;;;;;5.33;3.97;;;26.40;99.90;;;;;;5065181;28;20111;-82
2023/09/11 12:30:08;;;;;;;11.63;4.70;;;26.50;99.90;;;;;;5060013;28;20024;-83
2023/09/11 12:32:33;;;;;;;10.65;4.32;;;26.60;99.90;;;;;;5064449;28;20020;-88
2023/09/11 12:35:00;;;;;;;9.75;4.22;;;26.70;99.90;;;;;;5083756;28;20035;-81
2023/09/11 12:37:25;;;;;;;9.52;4.53;;;26.90;99.80;;;;;;5062436;28;20521;-83
2023/09/11 12:39:51;;;;;;;8.52;3.83;;;27.00;99.00;;;;;;5060963;28;20168;-82
2023/09/11 12:42:17;;;;;;;10.45;4.90;;;27.10;98.50;;;;;;5081376;28;20070;-85